Time;durP1;ratioP1;P1;durP2;ratioP2;P2;SDS_P1;SDS_P2;PMS_P1;PMS_P2;Temp;Humidity;BMP_temperature;BMP_pressure;BME280_temperature;BME280_humidity;BME280_pressure;Samples;Min_cycle;Max_cycle;Signal;HPM_P1;HPM_P2
2023/12/21 06:44:55;;;;;;;7.35;4.38;;;;;;;;;;10526803;28;20420;-82
2023/12/21 06:49:56;;;;;;;6.07;3.90;;;;;;;;;;10519799;28;20024;-83
2023/12/21 07:12:28;;;;;;;;;;;;;;;;;;10311053;28;20067;-84
2023/12/21 07:17:36;;;;;;;8.23;5.80;;;;;;;;;;10311358;28;19906;-84
2023/12/21 07:28:22;;;;;;;6.97;4.35;;;;;;;;;;10287288;28;20507;-84
2023/12/21 07:34:08;;;;;;;8.45;4.57;;;;;;;;;;10287474;28;20050;-84
2023/12/21 07:39:36;;;;;;;4.43;3.15;;;;;;;;;;10319276;28;20034;-84
2023/12/21 07:50:24;;;;;;;;;;;;;;;;;;10446906;28;20038;-85
2023/12/21 07:55:44;;;;;;;3.25;2.20;;;;;;;;;;10429070;28;19906;-84
2023/12/21 08:01:05;;;;;;;5.35;3.65;;;;;;;;;;10348521;28;20045;-83
2023/12/21 08:06:33;;;;;;;3.28;2.08;;;;;;;;;;10353455;28;20026;-84
2023/12/21 08:11:56;;;;;;;6.03;2.50;;;;;;;;;;10358477;28;20038;-83
2023/12/21 08:17:40;;;;;;;4.38;3.13;;;;;;;;;;10373215;28;20030;-83
2023/12/21 08:23:02;;;;;;;9.32;6.03;;;;;;;;;;10364592;28;20099;-83
2023/12/21 08:28:46;;;;;;;4.30;3.53;;;;;;;;;;10348827;28;20022;-83
2023/12/21 08:33:47;;;;;;;10.48;7.57;;;;;;;;;;10349698;28;20035;-83
2023/12/21 08:39:32;;;;;;;3.53;2.65;;;;;;;;;;10352370;28;20548;-84
2023/12/21 08:50:57;;;;;;;4.38;2.88;;;;;;;;;;10366187;28;20022;-83
2023/12/21 09:02:15;;;;;;;6.07;3.97;;;;;;;;;;10348168;28;20026;-82
2023/12/21 09:08:04;;;;;;;3.50;2.88;;;;;;;;;;10348597;28;20057;-83
2023/12/21 09:19:06;;;;;;;5.32;3.80;;;;;;;;;;10340161;28;20030;-83
2023/12/21 09:24:27;;;;;;;5.40;3.95;;;;;;;;;;10342936;28;20037;-83
2023/12/21 09:29:56;;;;;;;5.95;3.28;;;;;;;;;;10349220;28;20063;-82
2023/12/21 09:35:17;;;;;;;3.40;2.13;;;;;;;;;;10348014;28;20030;-83
2023/12/21 09:52:17;;;;;;;3.58;1.60;;;;;;;;;;10296813;28;20054;-82
2023/12/21 09:57:39;;;;;;;3.10;2.05;;;;;;;;;;10296464;28;20438;-82
2023/12/21 10:03:24;;;;;;;3.15;1.50;;;;;;;;;;10285722;28;20569;-83
2023/12/21 10:19:46;;;;;;;1.92;1.05;;;;;;;;;;10343166;28;20026;-81
2023/12/21 10:24:49;;;;;;;1.63;0.75;;;;;;;;;;10341094;28;20018;-81
2023/12/21 10:30:32;;;;;;;2.80;1.30;;;;;;;;;;10342737;28;20041;-83
2023/12/21 10:35:33;;;;;;;2.83;1.45;;;;;;;;;;10348280;28;20401;-83
2023/12/21 10:40:35;;;;;;;1.45;0.90;;;;;;;;;;10348202;28;20026;-83
2023/12/21 10:45:57;;;;;;;1.55;1.10;;;;;;;;;;10350555;28;20420;-83
2023/12/21 10:50:59;;;;;;;1.52;0.80;;;;;;;;;;10347494;28;20031;-84
2023/12/21 10:56:01;;;;;;;2.45;1.40;;;;;;;;;;10343687;28;20033;-85
2023/12/21 11:01:09;;;;;;;1.00;0.80;;;;;;;;;;10342996;28;20076;-83
2023/12/21 11:06:16;;;;;;;2.63;0.93;;;;;;;;;;10337828;28;20030;-82
2023/12/21 11:11:22;;;;;;;2.05;0.77;;;;;;;;;;10337064;28;20022;-81
2023/12/21 11:16:25;;;;;;;2.08;1.13;;;;;;;;;;10335865;28;20024;-80
2023/12/21 11:21:27;;;;;;;1.63;0.98;;;;;;;;;;10335146;28;20035;-79
2023/12/21 11:26:35;;;;;;;2.47;1.27;;;;;;;;;;10342376;28;20046;-81
2023/12/21 11:31:38;;;;;;;3.17;1.42;;;;;;;;;;10347090;28;20031;-82
2023/12/21 11:36:40;;;;;;;3.38;1.00;;;;;;;;;;10348767;28;20030;-82
2023/12/21 11:42:00;;;;;;;3.88;1.27;;;;;;;;;;10350933;28;20077;-82
2023/12/21 11:47:01;;;;;;;4.00;1.10;;;;;;;;;;10352973;28;20034;-83
2023/12/21 11:52:02;;;;;;;4.28;1.77;;;;;;;;;;10355815;28;20463;-79
2023/12/21 11:57:13;;;;;;;2.20;0.75;;;;;;;;;;10356842;28;20050;-81
2023/12/21 12:02:16;;;;;;;5.03;3.00;;;;;;;;;;10351589;28;20034;-82
2023/12/21 12:07:17;;;;;;;3.85;1.00;;;;;;;;;;10347856;28;20490;-79
2023/12/21 12:12:18;;;;;;;3.65;0.70;;;;;;;;;;10346823;28;20030;-81
2023/12/21 12:17:20;;;;;;;2.63;1.00;;;;;;;;;;10347290;28;20037;-81
2023/12/21 12:22:21;;;;;;;1.65;0.50;;;;;;;;;;10347892;28;20034;-81
2023/12/21 12:27:22;;;;;;;2.47;1.02;;;;;;;;;;10371793;28;20026;-78
2023/12/21 12:32:24;;;;;;;3.47;1.00;;;;;;;;;;10364771;28;20095;-80
2023/12/21 12:37:25;;;;;;;1.17;0.57;;;;;;;;;;10365360;28;20041;-80
2023/12/21 12:42:27;;;;;;;;;;;;;;;;;;10358147;28;20026;-79
2023/12/21 12:47:28;;;;;;;2.50;1.17;;;;;;;;;;10347069;28;19913;-80
2023/12/21 12:52:30;;;;;;;3.45;0.90;;;;;;;;;;10346364;28;20041;-80
2023/12/21 12:57:31;;;;;;;6.53;3.80;;;;;;;;;;10341908;28;20380;-80
2023/12/21 13:02:32;;;;;;;2.75;1.10;;;;;;;;;;10342368;28;20117;-81
2023/12/21 13:07:36;;;;;;;3.58;1.17;;;;;;;;;;10350817;28;20494;-83
2023/12/21 13:12:37;;;;;;;2.13;0.70;;;;;;;;;;10357113;28;20022;-80
2023/12/21 13:17:39;;;;;;;3.25;1.48;;;;;;;;;;10346108;28;20474;-80
2023/12/21 13:22:40;;;;;;;2.42;0.80;;;;;;;;;;10348643;28;20026;-80
2023/12/21 13:27:42;;;;;;;2.40;0.90;;;;;;;;;;10344084;28;20447;-80
2023/12/21 13:32:43;;;;;;;3.17;0.75;;;;;;;;;;10345970;28;20029;-80
2023/12/21 13:37:46;;;;;;;;;;;;;;;;;;10346074;28;20078;-80
2023/12/21 13:42:48;;;;;;;5.18;1.98;;;;;;;;;;10350280;28;19973;-79
2023/12/21 13:47:49;;;;;;;2.53;0.80;;;;;;;;;;10347931;28;20022;-80
2023/12/21 13:52:50;;;;;;;3.33;0.90;;;;;;;;;;10341166;28;20081;-79
2023/12/21 13:57:51;;;;;;;3.42;1.25;;;;;;;;;;10347253;28;20085;-81
2023/12/21 14:02:52;;;;;;;5.18;1.10;;;;;;;;;;10351836;28;20059;-79
2023/12/21 14:07:54;;;;;;;2.50;1.08;;;;;;;;;;10348509;28;20038;-80
2023/12/21 14:12:55;;;;;;;3.40;1.48;;;;;;;;;;10352455;28;20073;-79
2023/12/21 14:17:56;;;;;;;2.05;0.80;;;;;;;;;;10355128;28;20022;-80
2023/12/21 14:22:57;;;;;;;2.30;0.90;;;;;;;;;;10351383;28;20494;-79
2023/12/21 14:27:59;;;;;;;3.10;0.88;;;;;;;;;;10349447;28;20022;-79
2023/12/21 14:33:00;;;;;;;3.00;0.88;;;;;;;;;;10353270;28;20391;-79
2023/12/21 14:38:01;;;;;;;2.85;1.50;;;;;;;;;;10352189;28;20067;-80
2023/12/21 14:43:02;;;;;;;;;;;;;;;;;;10345342;28;20046;-79
2023/12/21 14:48:03;;;;;;;1.83;0.90;;;;;;;;;;10344189;28;19910;-79
2023/12/21 14:53:04;;;;;;;;;;;;;;;;;;10342467;28;20038;-79
2023/12/21 14:58:05;;;;;;;2.50;1.25;;;;;;;;;;10340314;28;19964;-78
2023/12/21 15:03:06;;;;;;;3.88;1.00;;;;;;;;;;10341223;28;20034;-79
2023/12/21 15:08:07;;;;;;;5.18;1.30;;;;;;;;;;10348100;28;20074;-79
2023/12/21 15:13:09;;;;;;;4.65;1.40;;;;;;;;;;10351048;28;20034;-79
2023/12/21 15:18:10;;;;;;;4.13;1.20;;;;;;;;;;10355894;28;20371;-79
2023/12/21 15:23:11;;;;;;;4.78;1.92;;;;;;;;;;10357501;28;20030;-79
2023/12/21 15:28:12;;;;;;;5.20;1.30;;;;;;;;;;10359627;28;20025;-82
2023/12/21 15:33:13;;;;;;;;;;;;;;;;;;10363730;28;20038;-79
2023/12/21 15:38:15;;;;;;;4.38;1.00;;;;;;;;;;10363673;28;20372;-78
2023/12/21 15:43:16;;;;;;;5.03;1.33;;;;;;;;;;10382581;28;20112;-78
2023/12/21 15:48:17;;;;;;;6.70;1.77;;;;;;;;;;10361823;28;20371;-79
2023/12/21 15:53:18;;;;;;;4.70;1.15;;;;;;;;;;10352719;28;20124;-79
2023/12/21 15:58:19;;;;;;;6.07;1.48;;;;;;;;;;10352305;28;20054;-79
2023/12/21 16:03:20;;;;;;;12.38;4.22;;;;;;;;;;10360422;28;20033;-78
2023/12/21 16:08:21;;;;;;;6.32;2.78;;;;;;;;;;10372525;28;20045;-78
2023/12/21 16:13:22;;;;;;;5.57;1.55;;;;;;;;;;10350437;28;20034;-79
2023/12/21 16:18:25;;;;;;;8.57;1.73;;;;;;;;;;10346209;28;20049;-78
2023/12/21 16:23:27;;;;;;;3.83;1.15;;;;;;;;;;10345054;28;20039;-78
2023/12/21 16:28:28;;;;;;;;;;;;;;;;;;10355038;28;20085;-78
2023/12/21 16:33:29;;;;;;;3.70;1.08;;;;;;;;;;10359158;28;20012;-79
2023/12/21 16:38:32;;;;;;;4.07;1.10;;;;;;;;;;10349654;28;20065;-78
2023/12/21 16:43:34;;;;;;;4.28;1.20;;;;;;;;;;10352353;28;20617;-79
2023/12/21 16:48:35;;;;;;;4.43;1.40;;;;;;;;;;10354335;28;20022;-79
2023/12/21 16:53:36;;;;;;;4.18;1.35;;;;;;;;;;10360274;28;20032;-79
2023/12/21 16:58:37;;;;;;;3.85;1.10;;;;;;;;;;10377250;28;20038;-78
2023/12/21 17:03:38;;;;;;;5.43;1.00;;;;;;;;;;10365909;28;20077;-79
2023/12/21 17:08:39;;;;;;;3.42;0.75;;;;;;;;;;10356209;28;20042;-79
2023/12/21 17:13:40;;;;;;;4.70;1.20;;;;;;;;;;10354645;28;20041;-78
2023/12/21 17:18:41;;;;;;;3.85;0.93;;;;;;;;;;10352044;28;20113;-81
2023/12/21 17:23:42;;;;;;;4.18;0.88;;;;;;;;;;10362263;28;20028;-80
2023/12/21 17:28:43;;;;;;;7.03;1.30;;;;;;;;;;10353220;28;20046;-81
2023/12/21 17:34:11;;;;;;;3.97;1.40;;;;;;;;;;10349434;28;20585;-84
2023/12/21 18:24:40;;;;;;;7.60;1.80;;;;;;;;;;10375620;28;20042;-85
2023/12/21 18:30:27;;;;;;;4.38;1.27;;;;;;;;;;10377832;28;20169;-85
2023/12/21 18:35:51;;;;;;;6.53;2.03;;;;;;;;;;10357369;28;20038;-85
2023/12/21 18:57:16;;;;;;;4.88;1.40;;;;;;;;;;10455580;22;20053;-85
2023/12/21 19:02:45;;;;;;;3.53;0.90;;;;;;;;;;10424282;28;20030;-86
2023/12/21 19:07:46;;;;;;;4.95;1.30;;;;;;;;;;10428522;28;20040;-85
2023/12/21 19:12:47;;;;;;;9.82;2.90;;;;;;;;;;10429104;28;20030;-85
2023/12/21 19:17:49;;;;;;;9.95;1.83;;;;;;;;;;10428177;28;20055;-85
2023/12/21 19:22:50;;;;;;;6.35;1.42;;;;;;;;;;10430463;28;20026;-85
2023/12/21 19:27:51;;;;;;;6.38;1.50;;;;;;;;;;10431093;28;20030;-85
2023/12/21 19:32:52;;;;;;;4.28;1.50;;;;;;;;;;10429992;28;20056;-85
2023/12/21 19:37:53;;;;;;;6.78;1.90;;;;;;;;;;10426145;28;20068;-84
2023/12/21 19:42:54;;;;;;;;;;;;;;;;;;10425473;28;20037;-84
2023/12/21 19:47:56;;;;;;;5.13;1.25;;;;;;;;;;10425753;28;20269;-85
2023/12/21 19:52:57;;;;;;;6.63;1.80;;;;;;;;;;10436091;28;20133;-85
2023/12/21 19:57:58;;;;;;;10.32;2.38;;;;;;;;;;10436074;28;20553;-85
2023/12/21 20:03:00;;;;;;;9.65;2.13;;;;;;;;;;10447460;28;20029;-85
2023/12/21 20:08:01;;;;;;;11.00;2.05;;;;;;;;;;10469349;28;20101;-86
